createdAt,value
2019-04-21T00:00:55.408Z,4.70
2019-04-21T00:02:59.615Z,4.80
2019-04-21T00:05:24.583Z,4.70
2019-04-21T00:07:36.496Z,4.60
2019-04-21T00:09:50.708Z,4.50
2019-04-21T00:11:55.371Z,4.40
2019-04-21T00:14:05.089Z,4.30
2019-04-21T00:15:58.946Z,4.20
2019-04-21T00:18:15.680Z,4.20
2019-04-21T00:20:31.049Z,4.30
2019-04-21T00:22:52.623Z,4.40
2019-04-21T00:25:01.079Z,4.50
2019-04-21T00:27:11.143Z,4.70
2019-04-21T00:29:31.402Z,4.80
2019-04-21T00:31:29.906Z,4.90
2019-04-21T00:33:26.790Z,4.90
2019-04-21T00:35:45.397Z,5.10
2019-04-21T00:38:15.376Z,5.20
2019-04-21T00:40:22.723Z,5.30
2019-04-21T00:42:31.544Z,5.50
2019-04-21T00:44:46.542Z,5.60
2019-04-21T00:47:01.773Z,5.70
2019-04-21T00:49:18.131Z,5.80
2019-04-21T00:51:40.239Z,6.20
2019-04-21T00:53:58.335Z,6.10
2019-04-21T00:56:11.263Z,6.10
2019-04-21T00:58:20.738Z,6.10
2019-04-21T01:00:27.335Z,5.70
2019-04-21T01:02:47.169Z,5.50
2019-04-21T01:04:53.878Z,5.50
2019-04-21T01:07:02.965Z,5.30
2019-04-21T01:09:02.718Z,5.30
2019-04-21T01:11:19.220Z,5.20
2019-04-21T01:13:38.721Z,5.00
2019-04-21T01:15:43.548Z,4.80
2019-04-21T01:17:46.005Z,4.60
2019-04-21T01:19:54.762Z,4.70
2019-04-21T01:21:45.301Z,4.60
2019-04-21T01:24:07.926Z,4.60
2019-04-21T01:26:18.007Z,4.50
2019-04-21T01:28:35.967Z,4.40
2019-04-21T01:30:44.881Z,4.30
2019-04-21T01:33:02.020Z,4.30
2019-04-21T01:35:14.990Z,4.20
2019-04-21T01:37:32.980Z,4.50
2019-04-21T01:39:41.208Z,4.50
2019-04-21T01:41:52.587Z,4.40
2019-04-21T01:43:59.298Z,4.30
2019-04-21T01:46:14.137Z,4.20
2019-04-21T01:48:24.649Z,4.30
2019-04-21T01:50:41.153Z,4.50
2019-04-21T01:53:02.007Z,4.50
2019-04-21T01:55:18.413Z,4.50
2019-04-21T01:57:35.728Z,4.60
2019-04-21T01:59:34.980Z,4.80
2019-04-21T02:01:59.228Z,4.90
2019-04-21T02:04:02.781Z,5.10
2019-04-21T02:06:27.536Z,5.30
2019-04-21T02:08:28.790Z,5.30
2019-04-21T02:10:46.218Z,5.30
2019-04-21T02:12:53.858Z,5.40
2019-04-21T02:15:11.485Z,5.60
2019-04-21T02:17:14.483Z,5.60
2019-04-21T02:19:13.881Z,5.60
2019-04-21T02:21:31.727Z,5.60
2019-04-21T02:23:46.191Z,5.70
2019-04-21T02:25:57.589Z,5.80
2019-04-21T02:28:07.857Z,5.80
2019-04-21T02:30:24.238Z,5.70
2019-04-21T02:32:42.091Z,5.70
2019-04-21T02:36:53.412Z,5.80
2019-04-21T02:39:20.985Z,5.90
2019-04-21T02:41:05.872Z,5.80
2019-04-21T02:45:43.375Z,6.00
2019-04-21T02:48:04.441Z,6.00
2019-04-21T02:50:10.081Z,6.20
2019-04-21T02:52:26.947Z,6.40
2019-04-21T02:59:02.954Z,6.40
2019-04-21T03:03:36.647Z,6.70
2019-04-21T03:08:30.004Z,7.10
2019-04-21T03:10:37.097Z,6.80
2019-04-21T03:12:38.524Z,6.60
2019-04-21T03:17:05.112Z,6.60
2019-04-21T03:19:17.624Z,6.70
2019-04-21T03:23:38.165Z,7.30
2019-04-21T03:30:20.731Z,7.50
2019-04-21T03:32:49.493Z,7.20
2019-04-21T03:37:00.491Z,7.10
2019-04-21T03:38:53.214Z,7.10
2019-04-21T03:41:10.582Z,7.10
2019-04-21T03:43:20.510Z,7.00
2019-04-21T03:47:40.558Z,7.10
2019-04-21T03:50:07.086Z,6.90
2019-04-21T03:54:33.062Z,6.80
2019-04-21T03:58:58.491Z,6.70
2019-04-21T04:03:52.197Z,6.70
2019-04-21T04:08:22.532Z,7.20
2019-04-21T04:12:34.343Z,7.60
2019-04-21T04:17:11.830Z,7.60
2019-04-21T04:19:09.457Z,7.70
2019-04-21T04:21:28.345Z,7.60
2019-04-21T04:25:33.799Z,7.50
2019-04-21T04:27:59.889Z,7.30
2019-04-21T04:30:04.641Z,7.20
2019-04-21T04:32:14.638Z,7.00
2019-04-21T04:34:24.798Z,7.00
2019-04-21T04:36:44.214Z,6.90
2019-04-21T04:38:46.837Z,6.90
2019-04-21T04:41:24.468Z,6.90
2019-04-21T04:46:10.614Z,7.30
2019-04-21T04:50:10.252Z,7.50
2019-04-21T04:52:32.554Z,7.40
2019-04-21T04:54:48.468Z,7.60
2019-04-21T04:56:53.930Z,7.40
2019-04-21T04:59:29.984Z,7.90
2019-04-21T05:01:15.827Z,8.10
2019-04-21T05:03:23.966Z,8.40
2019-04-21T05:05:48.678Z,8.70
2019-04-21T05:07:42.991Z,8.80
2019-04-21T05:09:47.292Z,8.90
2019-04-21T05:11:55.728Z,8.90
2019-04-21T05:16:24.324Z,9.20
2019-04-21T05:18:25.271Z,9.40
2019-04-21T05:20:41.788Z,9.60
2019-04-21T05:22:42.699Z,9.70
2019-04-21T05:24:44.481Z,9.80
2019-04-21T05:26:58.499Z,9.80
2019-04-21T05:29:00.439Z,10.00
2019-04-21T05:31:34.948Z,10.20
2019-04-21T05:33:57.684Z,10.50
2019-04-21T05:36:34.328Z,11.00
2019-04-21T05:39:06.479Z,11.70
2019-04-21T05:41:13.057Z,11.90
2019-04-21T05:43:32.624Z,12.20
2019-04-21T05:45:42.252Z,12.50
2019-04-21T05:48:23.171Z,12.70
2019-04-21T05:50:32.614Z,13.10
2019-04-21T05:52:50.395Z,13.50
2019-04-21T05:55:12.674Z,13.80
2019-04-21T05:57:14.679Z,14.30
2019-04-21T05:59:43.705Z,14.10
2019-04-21T06:02:06.107Z,14.10
2019-04-21T06:04:17.110Z,13.80
2019-04-21T06:06:26.167Z,14.70
2019-04-21T06:08:31.319Z,14.90
2019-04-21T06:12:50.307Z,14.30
2019-04-21T06:15:01.063Z,14.80
2019-04-21T06:19:31.171Z,15.20
2019-04-21T06:21:35.970Z,15.40
2019-04-21T06:23:42.367Z,15.60
2019-04-21T06:26:17.926Z,16.20
2019-04-21T06:28:10.299Z,15.80
2019-04-21T06:30:13.417Z,15.80
2019-04-21T06:32:46.058Z,16.40
2019-04-21T06:34:49.647Z,16.40
2019-04-21T06:37:18.777Z,16.50
2019-04-21T06:39:33.187Z,16.80
2019-04-21T06:41:31.438Z,17.10
2019-04-21T06:43:39.956Z,17.60
2019-04-21T06:45:54.349Z,17.70
2019-04-21T06:48:05.959Z,17.80
2019-04-21T06:50:18.572Z,18.70
2019-04-21T06:55:03.378Z,18.60
2019-04-21T06:57:01.991Z,18.60
2019-04-21T06:59:09.468Z,19.10
2019-04-21T07:01:34.535Z,19.40
2019-04-21T07:03:34.660Z,19.10
2019-04-21T07:05:50.559Z,20.00
2019-04-21T07:08:09.307Z,19.80
2019-04-21T07:12:18.340Z,20.00
2019-04-21T07:16:42.902Z,20.90
2019-04-21T07:18:58.602Z,20.90
2019-04-21T07:20:54.987Z,20.80
2019-04-21T07:23:15.649Z,21.40
2019-04-21T07:25:22.554Z,22.10
2019-04-21T07:27:35.484Z,21.90
2019-04-21T07:29:56.552Z,22.40
2019-04-21T07:32:04.425Z,22.40
2019-04-21T07:34:19.021Z,22.10
2019-04-21T07:36:21.843Z,23.80
2019-04-21T07:38:22.441Z,24.50
2019-04-21T07:40:39.939Z,24.90
2019-04-21T07:42:47.800Z,25.40
2019-04-21T07:44:57.964Z,25.40
2019-04-21T07:47:20.243Z,25.00
2019-04-21T07:49:46.261Z,24.20
2019-04-21T07:52:22.184Z,25.30
2019-04-21T07:54:34.226Z,25.80
2019-04-21T07:56:34.359Z,24.90
2019-04-21T07:59:00.179Z,25.40
2019-04-21T08:01:04.550Z,26.20
2019-04-21T08:03:15.459Z,25.90
2019-04-21T08:05:20.077Z,26.60
2019-04-21T08:07:45.000Z,26.70
2019-04-21T08:09:45.273Z,26.20
2019-04-21T08:11:44.131Z,26.10
2019-04-21T08:14:01.088Z,26.20
2019-04-21T08:16:10.609Z,27.00
2019-04-21T08:18:21.023Z,26.80
2019-04-21T08:20:28.514Z,27.40
2019-04-21T08:22:43.217Z,28.50
2019-04-21T08:24:54.353Z,28.00
2019-04-21T08:27:03.213Z,28.10
2019-04-21T08:29:20.651Z,28.50
2019-04-21T08:31:34.440Z,28.00
2019-04-21T08:36:04.722Z,27.60
2019-04-21T08:37:50.815Z,27.60
2019-04-21T08:42:25.301Z,28.30
2019-04-21T08:44:43.202Z,28.40
2019-04-21T08:46:55.097Z,27.90
2019-04-21T08:48:55.437Z,28.50
2019-04-21T08:51:23.982Z,28.70
2019-04-21T08:53:27.385Z,27.50
2019-04-21T08:55:52.407Z,27.80
2019-04-21T09:00:57.785Z,28.70
2019-04-21T09:03:06.458Z,27.90
2019-04-21T09:05:11.122Z,28.60
2019-04-21T09:09:34.588Z,28.40
2019-04-21T09:11:42.217Z,28.50
2019-04-21T09:13:54.833Z,28.80
2019-04-21T09:15:59.556Z,28.50
2019-04-21T09:18:08.825Z,29.10
2019-04-21T09:22:29.966Z,29.20
2019-04-21T09:24:41.276Z,29.20
2019-04-21T09:26:46.136Z,29.40
2019-04-21T09:28:51.909Z,29.40
2019-04-21T09:30:57.756Z,29.70
2019-04-21T09:33:02.421Z,29.80
2019-04-21T09:35:17.361Z,30.00
2019-04-21T09:37:36.962Z,29.20
2019-04-21T09:39:33.364Z,28.50
2019-04-21T09:41:54.484Z,29.10
2019-04-21T09:43:59.717Z,29.50
2019-04-21T09:46:06.188Z,29.00
2019-04-21T09:48:22.533Z,29.10
2019-04-21T09:50:27.057Z,29.20
2019-04-21T09:52:41.851Z,28.60
2019-04-21T09:54:56.451Z,29.10
2019-04-21T09:57:05.837Z,28.10
2019-04-21T09:59:23.669Z,29.70
2019-04-21T10:01:32.146Z,29.30
2019-04-21T10:03:43.450Z,29.90
2019-04-21T10:05:51.869Z,29.60
2019-04-21T10:07:57.595Z,29.10
2019-04-21T10:10:03.839Z,29.00
2019-04-21T10:12:16.280Z,30.20
2019-04-21T10:14:22.084Z,30.20
2019-04-21T10:16:54.045Z,29.30
2019-04-21T10:19:00.483Z,29.70
2019-04-21T10:21:07.614Z,29.30
2019-04-21T10:23:19.638Z,30.60
2019-04-21T10:25:25.088Z,30.60
2019-04-21T10:27:39.291Z,30.30
2019-04-21T10:29:45.341Z,30.50
2019-04-21T10:31:54.570Z,29.60
2019-04-21T10:34:07.424Z,29.40
2019-04-21T10:36:13.166Z,29.10
2019-04-21T10:38:28.210Z,30.80
2019-04-21T10:40:35.235Z,31.00
2019-04-21T10:42:46.065Z,29.60
2019-04-21T10:44:58.872Z,29.90
2019-04-21T10:47:04.779Z,30.90
2019-04-21T10:49:10.777Z,30.90
2019-04-21T10:51:23.111Z,30.30
2019-04-21T10:53:32.286Z,28.60
2019-04-21T10:56:00.405Z,29.80
2019-04-21T10:58:26.604Z,30.10
2019-04-21T11:00:34.326Z,29.40
2019-04-21T11:02:54.878Z,28.70
2019-04-21T11:05:00.740Z,29.40
2019-04-21T11:07:36.105Z,30.20
2019-04-21T11:09:40.190Z,29.80
2019-04-21T11:11:48.114Z,28.50
2019-04-21T11:14:00.552Z,29.00
2019-04-21T11:16:05.737Z,28.20
2019-04-21T11:18:19.844Z,29.20
2019-04-21T11:20:33.031Z,29.90
2019-04-21T11:22:45.364Z,30.40
2019-04-21T11:24:53.235Z,28.60
2019-04-21T11:27:06.655Z,29.60
2019-04-21T11:29:19.151Z,29.40
2019-04-21T11:31:25.116Z,30.40
2019-04-21T11:33:31.303Z,29.90
2019-04-21T11:35:43.586Z,30.20
2019-04-21T11:37:50.295Z,29.70
2019-04-21T11:40:09.173Z,29.40
2019-04-21T11:42:25.812Z,29.80
2019-04-21T11:44:31.152Z,29.70
2019-04-21T11:46:44.451Z,28.80
2019-04-21T11:48:50.465Z,30.30
2019-04-21T11:50:57.249Z,29.90
2019-04-21T11:53:10.627Z,29.20
2019-04-21T11:55:16.611Z,29.00
2019-04-21T11:57:35.042Z,29.00
2019-04-21T11:59:43.774Z,29.90
2019-04-21T12:02:03.455Z,29.50
2019-04-21T12:04:09.765Z,29.40
2019-04-21T12:06:30.781Z,30.00
2019-04-21T12:08:42.278Z,30.20
2019-04-21T12:10:45.097Z,29.90
2019-04-21T12:13:07.415Z,29.70
2019-04-21T12:15:14.154Z,29.40
2019-04-21T12:17:20.344Z,29.80
2019-04-21T12:19:32.616Z,29.60
2019-04-21T12:21:50.521Z,28.50
2019-04-21T12:23:52.307Z,29.30
2019-04-21T12:25:58.999Z,28.60
2019-04-21T12:28:05.767Z,29.20
2019-04-21T12:30:19.839Z,29.20
2019-04-21T12:32:48.673Z,28.40
2019-04-21T12:34:55.237Z,28.90
2019-04-21T12:37:08.522Z,29.20
2019-04-21T12:39:14.892Z,29.40
2019-04-21T12:41:33.842Z,29.10
2019-04-21T12:43:39.132Z,28.90
2019-04-21T12:45:44.283Z,28.40
2019-04-21T12:47:58.013Z,29.10
2019-04-21T12:50:04.570Z,28.90
2019-04-21T12:52:17.736Z,29.20
2019-04-21T12:54:23.794Z,29.00
2019-04-21T12:56:35.654Z,28.80
2019-04-21T12:58:48.973Z,28.70
2019-04-21T13:01:01.347Z,28.20
2019-04-21T13:03:14.166Z,27.90
2019-04-21T13:05:19.978Z,28.10
2019-04-21T13:07:25.786Z,27.90
2019-04-21T13:09:38.298Z,27.30
2019-04-21T13:11:43.625Z,26.00
2019-04-21T13:13:55.781Z,25.40
2019-04-21T13:16:01.222Z,25.00
2019-04-21T13:18:08.150Z,25.20
2019-04-21T13:20:21.144Z,24.00
2019-04-21T13:22:26.437Z,24.50
2019-04-21T13:24:38.162Z,24.40
2019-04-21T13:26:55.761Z,24.10
2019-04-21T13:28:58.429Z,24.00
2019-04-21T13:31:12.001Z,24.30
2019-04-21T13:33:18.774Z,24.40
2019-04-21T13:35:24.161Z,24.50
2019-04-21T13:37:35.459Z,24.00
2019-04-21T13:40:19.474Z,23.90
2019-04-21T13:42:23.891Z,24.00
2019-04-21T13:44:30.896Z,23.90
2019-04-21T13:46:38.599Z,23.60
2019-04-21T13:48:44.753Z,23.50
2019-04-21T13:50:57.385Z,23.30
2019-04-21T13:53:09.846Z,23.40
2019-04-21T13:55:15.877Z,23.40
2019-04-21T13:57:23.947Z,23.80
2019-04-21T13:59:36.365Z,24.40
2019-04-21T14:01:49.751Z,24.00
2019-04-21T14:04:09.549Z,24.10
2019-04-21T14:06:22.513Z,23.90
2019-04-21T14:08:29.358Z,23.40
2019-04-21T14:10:41.762Z,23.40
2019-04-21T14:12:46.972Z,23.20
2019-04-21T14:14:58.383Z,23.40
2019-04-21T14:17:05.394Z,23.80
2019-04-21T14:19:17.449Z,23.70
2019-04-21T14:21:31.336Z,23.60
2019-04-21T14:23:43.447Z,23.40
2019-04-21T14:25:50.568Z,23.50
2019-04-21T14:27:57.729Z,23.00
2019-04-21T14:30:10.434Z,23.00
2019-04-21T14:32:16.110Z,23.10
2019-04-21T14:34:21.858Z,23.00
2019-04-21T14:36:34.925Z,22.70
2019-04-21T14:38:40.776Z,23.00
2019-04-21T14:40:46.241Z,22.90
2019-04-21T14:43:05.828Z,22.40
2019-04-21T14:45:21.058Z,22.50
2019-04-21T14:47:42.137Z,22.50
2019-04-21T14:50:28.396Z,22.40
2019-04-21T14:52:44.281Z,22.30
2019-04-21T14:54:56.706Z,22.20
2019-04-21T14:57:03.333Z,22.30
2019-04-21T14:59:15.194Z,22.10
2019-04-21T15:01:21.641Z,22.20
2019-04-21T15:03:39.962Z,22.10
2019-04-21T15:05:51.550Z,22.00
2019-04-21T15:07:57.290Z,22.10
2019-04-21T15:10:15.108Z,22.00
2019-04-21T15:12:16.384Z,21.80
2019-04-21T15:14:22.202Z,21.80
2019-04-21T15:16:34.350Z,21.90
2019-04-21T15:18:40.918Z,22.10
2019-04-21T15:20:53.310Z,21.90
